Latest Weather Observations for Mt Wellington

IDT60901

Issued at 5:31 pm EDT Thursday 5 March 2015 (issued every 10 minutes, with the page automatically refreshed every 10 minutes)

About weather observations | Map of Hobart area stations | Latest observations for Hobart area | Other Formats
Station Details ID: 094087 Name: MOUNT WELLINGTON Lat: -42.90 Lon: 147.24 Height: 1260.47 m
Data from the previous 72 hours. | See also: Recent months at Mt Wellington
Date/Time
EDT
Tmp

°C
App
Tmp
°C
Dew
Point
°C
Rel
Hum
%
Delta-T

°C
Wind Press
QNH
hPa
Press
MSL
hPa
Rain
since
9 am
mm
Dir
 
Spd
km/h
Gust
km/h
Spd
kts
Gust
kts
05/05:30pm 1.2 -13.6 -0.7 87 0.7 W 67 93 36 50 - - 0.6
05/05:00pm 1.6 -13.5 -0.2 88 0.7 W 69 89 37 48 - - 0.6
05/04:32pm 1.9 -11.8 -0.7 83 1.0 W 61 82 33 44 - - 0.6
05/04:30pm 2.0 -12.1 -0.7 82 1.1 W 63 82 34 44 - - 0.6
05/04:21pm 2.3 -10.6 -0.6 81 1.1 W 57 82 31 44 - - 0.6
05/04:00pm 1.6 -9.1 0.3 91 0.5 WSW 46 72 25 39 - - 0.6
05/03:30pm 1.5 -9.1 0.5 93 0.4 W 46 69 25 37 - - 0.6
05/03:24pm 1.1 -8.2 0.4 95 0.3 W 39 61 21 33 - - 0.6
05/03:00pm 0.9 -9.5 -0.1 93 0.4 WSW 44 59 24 32 - - 0.6
05/02:40pm 1.5 -7.9 -0.1 89 0.6 W 39 63 21 34 - - 0.6
05/02:30pm 1.6 -8.1 0.6 93 0.4 W 41 56 22 30 - - 0.6
05/02:11pm 0.8 -10.3 0.1 95 0.3 WSW 48 69 26 37 - - 0.6
05/02:00pm 0.7 -10.8 -0.3 93 0.4 WSW 50 67 27 36 - - 0.6
05/01:40pm 0.8 -10.0 -0.2 93 0.4 W 46 67 25 36 - - 0.6
05/01:30pm 0.7 -11.2 0.0 95 0.3 WSW 52 67 28 36 - - 0.6
05/01:02pm 0.0 -11.9 -0.4 97 0.2 WSW 52 72 28 39 - - 0.6
05/01:00pm 0.0 -11.5 -0.4 97 0.2 WSW 50 63 27 34 - - 0.6
05/12:30pm 0.2 -12.5 -0.4 96 0.2 WSW 56 65 30 35 - - 0.6
05/12:00pm 0.0 -11.9 -0.6 96 0.2 WSW 52 63 28 34 - - 0.4
05/11:30am -0.4 -12.0 -0.8 97 0.1 SW 50 63 27 34 - - 0.4
05/11:00am -0.8 -13.3 -1.5 95 0.2 SW 54 67 29 36 - - 0.4
05/10:30am -1.5 -15.0 -2.1 96 0.1 SW 59 69 32 37 - - 0.0
05/10:00am -1.5 -14.0 -2.1 96 0.1 SW 54 69 29 37 - - 0.0
05/09:30am -1.8 -12.8 -2.4 96 0.1 SW 46 63 25 34 - - 0.0
05/09:00am -1.6 -11.7 -2.2 96 0.1 SW 41 54 22 29 - - 2.0
05/08:34am -1.7 -12.2 -2.3 96 0.1 SW 43 63 23 34 - - 2.0
05/08:30am -1.8 -12.8 -2.4 96 0.1 SW 46 63 25 34 - - 2.0
05/08:00am -1.8 -13.2 -2.4 96 0.1 SW 48 78 26 42 - - 2.0
05/07:30am -1.1 -11.7 -1.5 97 0.1 SW 44 67 24 36 - - 2.0
05/07:00am -1.4 -14.3 -1.8 97 0.1 SW 56 76 30 41 - - 2.0
05/06:41am -1.1 -13.2 -1.5 97 0.1 SW 52 72 28 39 - - 2.0
05/06:30am -1.4 -14.3 -1.8 97 0.1 SW 56 67 30 36 - - 2.0
05/06:00am -1.1 -14.5 -1.5 97 0.1 SW 59 82 32 44 - - 2.0
05/05:57am -1.1 -14.9 -1.5 97 0.1 SW 61 82 33 44 - - 2.0
05/05:33am -1.2 -13.7 -1.6 97 0.1 SW 54 78 29 42 - - 2.0
05/05:30am -1.1 -12.0 -1.5 97 0.1 SW 46 65 25 35 - - 2.0
05/05:20am -0.7 -12.0 -1.1 97 0.1 SW 48 69 26 37 - - 2.0
05/05:00am -0.7 -13.5 -1.1 97 0.1 SW 56 67 30 36 - - 2.0
05/04:30am -0.7 -14.0 -1.1 97 0.1 SW 59 78 32 42 - - 2.0
05/04:00am -0.8 -14.5 -1.2 97 0.1 WSW 61 72 33 39 - - 2.0
05/03:30am -0.2 -14.6 -0.5 98 0.1 WSW 65 91 35 49 - - 2.0
05/03:25am 0.0 -13.6 -0.3 98 0.1 WSW 61 91 33 49 - - 2.0
05/03:12am 0.1 -11.4 -0.2 98 0.1 WSW 50 69 27 37 - - 2.0
05/03:00am 0.1 -12.2 -0.3 97 0.2 WSW 54 65 29 35 - - 2.0
05/02:30am 0.5 -11.3 0.1 97 0.2 WSW 52 65 28 35 - - 1.8
05/02:20am 0.5 -11.0 0.1 97 0.2 WSW 50 70 27 38 - - 1.8
05/02:00am 0.5 -12.1 0.1 97 0.2 WSW 56 72 30 39 - - 1.8
05/01:35am 0.9 -12.6 0.5 97 0.2 WSW 61 80 33 43 - - 1.8
05/01:30am 1.1 -12.4 0.7 97 0.2 WSW 61 76 33 41 - - 1.8
05/01:00am 1.4 -13.2 1.0 97 0.2 WSW 67 83 36 45 - - 1.8
05/12:38am 1.9 -11.1 1.5 97 0.2 W 59 80 32 43 - - 1.6
05/12:30am 2.0 -10.6 1.4 96 0.2 WSW 57 74 31 40 - - 1.6
05/12:00am 2.8 -8.0 2.2 96 0.3 W 48 82 26 44 - - 1.6
 
Date/Time
EDT
Tmp

°C
App
Tmp
°C
Dew
Point
°C
Rel
Hum
%
Delta-T

°C
Wind Press
QNH
hPa
Press
MSL
hPa
Rain
since
9 am
mm
Dir
 
Spd
km/h
Gust
km/h
Spd
kts
Gust
kts
04/11:57pm 2.8 -8.0 2.2 96 0.3 W 48 82 26 44 - - 1.6
04/11:54pm 3.0 -7.3 2.4 96 0.3 W 46 65 25 35 - - 1.4
04/11:30pm 3.5 -6.4 2.6 94 0.4 W 44 63 24 34 - - 0.8
04/11:00pm 3.8 -7.3 2.5 91 0.6 W 50 72 27 39 - - 0.8
04/10:30pm 4.1 -7.2 3.4 95 0.3 WNW 52 76 28 41 - - 0.8
04/10:00pm 4.5 -7.7 3.5 93 0.4 WNW 57 76 31 41 - - 0.6
04/09:30pm 4.5 -7.8 3.2 91 0.6 WNW 57 80 31 43 - - 0.6
04/09:00pm 4.8 -9.0 3.1 89 0.8 WNW 65 87 35 47 - - 0.6
04/08:31pm 4.7 -9.2 2.9 88 0.8 W 65 87 35 47 - - 0.6
04/08:30pm 4.7 -9.1 3.0 89 0.8 W 65 83 35 45 - - 0.6
04/08:15pm 4.8 -7.4 3.9 94 0.4 WNW 57 87 31 47 - - 0.6
04/08:13pm 4.8 -6.7 4.4 97 0.2 WNW 54 87 29 47 - - 0.6
04/08:02pm 5.2 -4.2 4.6 96 0.3 WNW 43 61 23 33 - - 0.4
04/08:00pm 5.2 -4.4 4.6 96 0.3 WNW 44 61 24 33 - - 0.4
04/07:42pm 5.5 -4.1 4.6 94 0.4 WNW 44 65 24 35 - - 0.2
04/07:30pm 5.9 -3.7 4.2 89 0.8 WNW 44 61 24 33 - - 0.2
04/07:29pm 6.0 -3.6 4.3 89 0.8 WNW 44 61 24 33 - - 0.2
04/07:00pm 6.1 -6.8 3.8 85 1.1 WNW 61 82 33 44 - - 0.2
04/06:30pm 6.1 -8.9 3.9 86 1.0 WNW 72 93 39 50 - - 0.2
04/06:00pm 6.3 -6.1 4.6 89 0.8 W 59 80 32 43 - - 0.2
04/05:30pm 7.8 -5.2 3.5 74 2.0 WNW 61 87 33 47 - - 0.2
04/05:00pm 8.2 -7.4 2.9 69 2.4 WNW 74 104 40 56 - - 0.2
04/04:40pm 8.3 -9.0 2.8 68 2.5 WNW 83 119 45 64 - - 0.2
04/04:30pm 8.3 -7.1 3.9 74 2.1 WNW 74 98 40 53 - - 0.2
04/04:00pm 9.4 -3.3 5.2 75 2.0 WNW 61 82 33 44 - - 0.2
04/03:30pm 9.5 -4.1 4.5 71 2.4 WNW 65 85 35 46 - - 0.2
04/03:29pm 9.3 -4.2 4.7 73 2.2 WNW 65 83 35 45 - - 0.2
04/03:27pm 8.9 -5.2 3.9 71 2.4 WNW 67 96 36 52 - - 0.2
04/03:00pm 9.0 -7.6 3.6 69 2.5 WNW 80 106 43 57 - - 0.2
04/02:30pm 9.3 -7.4 4.9 74 2.1 WNW 82 102 44 55 - - 0.2
04/02:25pm 9.0 -7.4 4.4 73 2.2 WNW 80 102 43 55 - - 0.2
04/02:22pm 9.2 -6.5 4.4 72 2.3 WNW 76 102 41 55 - - 0.2
04/02:00pm 9.5 -3.1 5.5 76 2.0 WNW 61 85 33 46 - - 0.2
04/01:30pm 9.6 -3.7 5.6 76 2.0 WNW 65 95 35 51 - - 0.0
04/01:00pm 9.3 -2.5 5.9 79 1.7 WNW 57 76 31 41 - - 0.0
04/12:47pm 9.2 -3.0 5.6 78 1.8 WNW 59 85 32 46 - - 0.0
04/12:30pm 9.2 -0.8 6.1 81 1.5 W 48 80 26 43 - - 0.0
04/12:25pm 8.9 -2.1 4.9 76 1.9 W 52 78 28 42 - - 0.0
04/12:21pm 8.7 -2.6 5.6 81 1.5 W 54 80 29 43 - - 0.0
04/12:00pm 8.7 -5.1 5.3 79 1.6 W 67 95 36 51 - - 0.0
04/11:30am 8.6 -6.5 5.4 80 1.6 W 74 102 40 55 - - 0.0
04/11:00am 7.8 -7.3 5.3 84 1.2 W 74 100 40 54 - - 0.0
04/10:30am 7.5 -6.6 5.6 88 0.9 W 69 96 37 52 - - 0.0
04/10:00am 6.4 -5.9 5.0 91 0.7 WNW 59 89 32 48 - - 0.0
04/09:30am 5.6 -8.7 4.9 95 0.3 W 69 95 37 51 - - 0.0
04/09:17am 5.2 -8.3 4.9 98 0.1 WNW 65 102 35 55 - - 0.0
04/09:03am 4.9 -6.6 4.6 98 0.1 WNW 54 76 29 41 - - 0.0
04/09:00am 4.9 -6.6 4.6 98 0.1 WNW 54 72 29 39 - - 0.2
04/08:30am 4.9 -7.5 4.6 98 0.1 WNW 59 83 32 45 - - 0.2
04/08:00am 4.7 -6.8 4.4 98 0.1 WNW 54 74 29 40 - - 0.2
04/07:30am 4.5 -7.6 4.2 98 0.1 WNW 57 80 31 43 - - 0.2
04/07:00am 4.3 -6.9 4.0 98 0.1 WNW 52 76 28 41 - - 0.0
04/06:30am 4.2 -9.1 3.9 98 0.1 WNW 63 89 34 48 - - 0.0
04/06:00am 3.9 -8.1 3.5 97 0.2 W 56 74 30 40 - - 0.0
04/05:30am 3.8 -8.5 3.4 97 0.2 WNW 57 85 31 46 - - 0.0
04/05:03am 3.6 -9.5 3.0 96 0.3 WNW 61 82 33 44 - - 0.0
04/05:00am 3.7 -9.7 3.3 97 0.2 WNW 63 80 34 43 - - 0.0
04/04:30am 3.7 -8.4 3.1 96 0.3 WNW 56 76 30 41 - - 0.0
04/04:17am 3.6 -9.9 2.9 95 0.3 WNW 63 82 34 44 - - 0.0
04/04:11am 3.7 -8.5 2.8 94 0.4 WNW 56 82 30 44 - - 0.0
04/04:00am 3.6 -6.7 2.6 93 0.4 WNW 46 67 25 36 - - 0.0
04/03:30am 3.6 -6.7 2.4 92 0.5 WNW 46 69 25 37 - - 0.0
04/03:00am 3.5 -8.0 2.3 92 0.5 WNW 52 76 28 41 - - 0.0
04/02:57am 3.6 -8.3 2.4 92 0.5 WNW 54 76 29 41 - - 0.0
04/02:42am 3.3 -5.7 2.4 94 0.4 WNW 39 57 21 31 - - 0.0
04/02:30am 3.1 -5.9 2.2 94 0.4 WNW 39 57 21 31 - - 0.0
04/02:27am 3.0 -5.7 2.1 94 0.4 WNW 37 57 20 31 - - 0.0
04/02:00am 3.1 -7.7 2.1 93 0.4 WNW 48 61 26 33 - - 0.0
04/01:31am 3.0 -5.7 1.7 91 0.6 WNW 37 57 20 31 - - 0.0
04/01:30am 3.0 -5.7 1.7 91 0.6 WNW 37 52 20 28 - - 0.0
04/01:00am 2.9 -7.2 1.4 90 0.6 WNW 44 65 24 35 - - 0.0
04/12:33am 2.7 -8.6 1.1 89 0.7 WNW 50 70 27 38 - - 0.0
04/12:30am 2.7 -9.0 0.9 88 0.7 WNW 52 67 28 36 - - 0.0
04/12:00am 2.9 -9.3 0.5 84 1.0 WNW 54 70 29 38 - - 0.0
 
Date/Time
EDT
Tmp

°C
App
Tmp
°C
Dew
Point
°C
Rel
Hum
%
Delta-T

°C
Wind Press
QNH
hPa
Press
MSL
hPa
Rain
since
9 am
mm
Dir
 
Spd
km/h
Gust
km/h
Spd
kts
Gust
kts
03/11:30pm 2.9 -7.2 0.5 84 1.0 WNW 43 52 23 28 - - 0.0
03/11:03pm 3.0 -9.2 0.1 81 1.2 WNW 54 72 29 39 - - 0.0
03/11:00pm 3.0 -9.6 0.1 81 1.2 WNW 56 72 30 39 - - 0.0
03/10:50pm 3.0 -7.7 0.1 81 1.2 WNW 46 67 25 36 - - 0.0
03/10:30pm 3.1 -7.1 -0.2 79 1.3 WNW 43 54 23 29 - - 0.0
03/10:00pm 3.5 -4.5 0.2 79 1.4 WNW 32 39 17 21 - - 0.0
03/09:30pm 4.1 -3.1 0.4 77 1.5 WNW 28 35 15 19 - - 0.0
03/09:00pm 4.7 -1.7 0.8 76 1.6 WNW 24 35 13 19 - - 0.0
03/08:30pm 5.3 -1.9 0.7 72 1.9 WNW 28 35 15 19 - - 0.0
03/08:00pm 5.9 -1.3 0.7 69 2.2 WNW 28 33 15 18 - - 0.0
03/07:30pm 7.1 -0.2 0.3 62 2.9 WNW 28 39 15 21 - - 0.0
03/07:00pm 8.2 1.3 0.0 56 3.5 NW 26 35 14 19 - - 0.0
03/06:30pm 9.1 2.8 1.5 59 3.4 NW 24 33 13 18 - - 0.0
03/06:00pm 9.5 3.6 1.4 57 3.6 NW 22 30 12 16 - - 0.0
03/05:30pm 9.9 4.5 1.3 55 3.8 NW 19 26 10 14 - - 0.0
03/05:00pm 8.5 2.4 0.7 58 3.4 NW 22 32 12 17 - - 0.0
03/04:30pm 9.8 3.4 1.2 55 3.8 NW 24 37 13 20 - - 0.0
03/04:00pm 9.4 3.9 0.6 54 3.9 NNW 19 33 10 18 - - 0.0
03/03:30pm 8.6 2.2 1.1 59 3.3 NNW 24 37 13 20 - - 0.0
03/03:00pm 9.2 3.6 1.4 58 3.5 NNW 20 37 11 20 - - 0.0
03/02:30pm 9.7 4.1 0.9 54 3.9 NW 20 32 11 17 - - 0.0
03/02:00pm 7.8 1.3 0.3 59 3.2 NW 24 39 13 21 - - 0.0
03/01:30pm 7.3 1.3 1.0 64 2.7 NW 22 33 12 18 - - 0.0
03/01:00pm 6.6 0.8 0.1 63 2.7 WNW 20 32 11 17 - - 0.0
03/12:30pm 6.4 0.9 0.7 67 2.4 NW 19 39 10 21 - - 0.0
03/12:00pm 6.9 2.3 1.6 69 2.3 WNW 15 20 8 11 - - 0.0
03/11:30am 6.2 2.1 2.1 75 1.8 W 13 26 7 14 - - 0.0
03/11:00am 5.2 0.9 0.8 73 1.9 W 13 22 7 12 - - 0.0
03/10:30am 5.2 -2.0 0.4 71 2.0 WNW 28 41 15 22 - - 0.0
03/10:00am 4.1 -2.6 1.5 83 1.1 W 26 39 14 21 - - 0.0
03/09:30am 3.5 -2.3 2.2 91 0.6 WSW 22 32 12 17 - - 0.0
03/09:00am 3.6 -0.5 2.4 92 0.5 W 13 20 7 11 - - 0.4
03/08:30am 3.3 -3.7 1.7 89 0.7 W 28 37 15 20 - - 0.4
03/08:06am 3.4 -5.3 1.8 89 0.7 W 37 57 20 31 - - 0.4
03/08:00am 3.4 -5.3 2.1 91 0.6 W 37 48 20 26 - - 0.4
03/07:30am 3.5 -4.1 3.1 97 0.2 W 32 46 17 25 - - 0.4
03/07:00am 3.9 -2.1 3.6 98 0.1 WSW 24 37 13 20 - - 0.4
03/06:30am 4.1 -0.9 3.8 98 0.1 W 19 26 10 14 - - 0.2
03/06:00am 4.4 -1.5 4.1 98 0.1 W 24 35 13 19 - - 0.2
03/05:30am 4.7 0.6 4.4 98 0.1 W 15 24 8 13 - - 0.2
03/05:00am 4.7 0.6 4.4 98 0.1 SW 15 26 8 14 - - 0.0
03/04:35am 4.9 -2.0 4.5 97 0.2 WSW 30 48 16 26 - - 0.0
03/04:30am 4.9 -3.3 4.5 97 0.2 WSW 37 54 20 29 - - 0.0
03/04:00am 5.0 -3.3 4.4 96 0.3 WSW 37 54 20 29 - - 0.0
03/03:30am 4.8 -4.3 4.2 96 0.3 WSW 41 56 22 30 - - 0.0
03/03:00am 4.8 -6.4 3.9 94 0.4 W 52 70 28 38 - - 0.0
03/02:30am 4.9 -6.8 3.6 91 0.6 W 54 72 29 39 - - 0.0
03/02:00am 5.5 -6.9 2.7 82 1.2 W 57 80 31 43 - - 0.0
03/01:30am 5.2 -7.6 2.6 83 1.2 W 59 80 32 43 - - 0.0
03/01:00am 4.5 -7.8 2.2 85 1.0 W 56 80 30 43 - - 0.0
03/12:43am 3.9 -6.9 2.1 88 0.8 WNW 48 67 26 36 - - 0.0
03/12:30am 4.2 -6.2 2.2 87 0.9 WNW 46 61 25 33 - - 0.0
03/12:19am 4.2 -7.3 2.4 88 0.8 W 52 70 28 38 - - 0.0
03/12:00am 4.2 -7.3 2.1 86 0.9 W 52 69 28 37 - - 0.0
 
Date/Time
EDT
Tmp

°C
App
Tmp
°C
Dew
Point
°C
Rel
Hum
%
Delta-T

°C
Wind Press
QNH
hPa
Press
MSL
hPa
Rain
since
9 am
mm
Dir
 
Spd
km/h
Gust
km/h
Spd
kts
Gust
kts
02/11:33pm 4.0 -6.1 1.7 85 1.0 W 44 65 24 35 - - 0.0
02/11:30pm 4.0 -6.1 1.7 85 1.0 W 44 57 24 31 - - 0.0
02/11:00pm 3.8 -5.9 0.8 81 1.3 W 41 61 22 33 - - 0.0
02/10:30pm 4.3 -6.1 -0.1 73 1.8 W 44 65 24 35 - - 0.0
02/10:00pm 4.9 -4.4 0.9 75 1.7 W 39 57 21 31 - - 0.0
02/09:58pm 5.0 -3.9 0.8 74 1.8 W 37 57 20 31 - - 0.0
02/09:30pm 6.2 -2.1 2.3 76 1.7 WNW 35 43 19 23 - - 0.0
02/09:00pm 7.2 -1.0 2.7 73 2.0 NW 35 50 19 27 - - 0.0
02/08:30pm 7.8 1.0 3.1 72 2.2 WNW 28 37 15 20 - - 0.0
02/08:00pm 8.5 2.5 3.1 69 2.5 NW 24 33 13 18 - - 0.0
02/07:30pm 9.2 2.8 3.0 65 2.9 NW 26 33 14 18 - - 0.0
02/07:00pm 9.5 1.7 3.0 64 3.0 NW 33 43 18 23 - - 0.0
02/06:30pm 9.5 2.0 3.5 66 2.8 NNW 32 43 17 23 - - 0.0
02/06:00pm 9.6 2.0 3.1 64 3.0 NNW 32 39 17 21 - - 0.0

Latest Capital City Observations: Canberra | Sydney | Melbourne | Brisbane | Adelaide | Perth | Hobart | Darwin

Other Formats:

Comma delimited format used in spreadsheet applications
http://www.bom.gov.au/fwo/IDT60901/IDT60901.95979.axf

JavaScript Object Notation format (JSON) in row-major order
http://www.bom.gov.au/fwo/IDT60901/IDT60901.95979.json